Time;durP1;ratioP1;P1;durP2;ratioP2;P2;SDS_P1;SDS_P2;PMS_P1;PMS_P2;Temp;Humidity;BMP_temperature;BMP_pressure;BME280_temperature;BME280_humidity;BME280_pressure;Samples;Min_cycle;Max_cycle;Signal;HPM_P1;HPM_P2
2022/06/04 00:01:30;;;;;;;0.00;0.00;;;;;;;14.71;79.07;100680.25;5072970;28;20219;-74
2022/06/04 00:03:55;;;;;;;0.00;0.00;;;;;;;14.78;78.92;100680.56;5072958;28;20182;-73
2022/06/04 00:06:21;;;;;;;0.00;0.00;;;;;;;14.85;78.78;100681.63;5072951;28;20185;-74
2022/06/04 00:08:46;;;;;;;0.00;0.00;;;;;;;14.68;78.27;100680.94;5072306;28;20336;-74
2022/06/04 00:16:39;;;;;;;0.00;0.00;;;;;;;14.54;78.05;100683.91;5072501;28;20166;-74
2022/06/04 00:19:05;;;;;;;0.00;0.00;;;;;;;14.57;77.86;100683.25;5072229;28;20202;-73
2022/06/04 00:21:30;;;;;;;0.00;0.00;;;;;;;14.68;78.24;100686.44;5072782;28;20171;-73
2022/06/04 00:23:55;;;;;;;0.00;0.00;;;;;;;14.87;77.92;100692.28;5072573;28;20695;-73
2022/06/04 00:26:22;;;;;;;0.00;0.00;;;;;;;14.73;76.48;100691.72;5072854;28;20253;-73
2022/06/04 00:28:47;;;;;;;2.13;0.47;;;;;;;14.51;77.20;100688.16;5071857;28;20796;-73
2022/06/04 00:31:14;;;;;;;0.00;0.00;;;;;;;14.31;78.14;100677.84;5072470;28;20250;-73
2022/06/04 00:33:40;;;;;;;0.00;0.00;;;;;;;14.24;78.52;100667.38;5071802;28;20202;-74
2022/06/04 00:36:06;;;;;;;0.03;0.03;;;;;;;14.05;78.82;100671.69;5071925;28;20194;-74
2022/06/04 00:38:33;;;;;;;0.00;0.00;;;;;;;14.04;78.76;100673.63;5071580;28;20195;-74
2022/06/04 00:41:36;;;;;;;0.00;0.00;;;;;;;13.92;79.38;100670.75;5072194;28;20166;-73
2022/06/04 00:44:04;;;;;;;0.00;0.00;;;;;;;13.91;79.35;100666.41;5072066;28;20197;-73
2022/06/04 00:46:39;;;;;;;0.00;0.00;;;;;;;13.84;79.38;100663.34;5072155;28;20464;-74
2022/06/04 00:49:04;;;;;;;0.00;0.00;;;;;;;13.81;79.84;100664.78;5070173;28;20716;-73
2022/06/04 00:51:30;;;;;;;0.00;0.00;;;;;;;13.74;79.97;100669.16;5072024;28;20250;-74
2022/06/04 00:53:57;;;;;;;0.00;0.00;;;;;;;13.63;79.84;100677.78;5071965;28;20257;-73
2022/06/04 00:56:49;;;;;;;0.00;0.00;;;;;;;13.53;80.73;100680.84;5071925;28;20262;-73
2022/06/04 00:59:38;;;;;;;0.00;0.00;;;;;;;13.50;80.72;100681.50;5071204;28;20222;-73
2022/06/04 01:02:19;;;;;;;0.00;0.00;;;;;;;13.50;80.91;100672.47;5071818;28;20170;-73
2022/06/04 01:04:58;;;;;;;0.00;0.00;;;;;;;13.57;80.50;100684.53;5071781;28;20249;-74
2022/06/04 01:07:34;;;;;;;0.00;0.00;;;;;;;13.59;79.67;100668.56;5071424;28;20219;-73
2022/06/04 01:10:14;;;;;;;0.00;0.00;;;;;;;13.63;80.09;100680.50;5071680;28;20262;-74
2022/06/04 01:12:42;;;;;;;0.00;0.00;;;;;;;13.80;79.68;100681.59;5071584;28;20155;-74
2022/06/04 01:15:28;;;;;;;0.13;0.13;;;;;;;13.70;79.71;100678.06;5071676;28;20205;-73
2022/06/04 01:18:17;;;;;;;0.00;0.00;;;;;;;13.59;79.85;100685.03;5070838;28;20529;-73
2022/06/04 01:21:21;;;;;;;0.00;0.00;;;;;;;13.91;80.00;100683.69;5070277;28;20227;-73
2022/06/04 01:24:05;;;;;;;0.00;0.00;;;;;;;14.07;79.57;100680.41;5053133;28;20185;-73
2022/06/04 01:26:40;;;;;;;0.00;0.00;;;;;;;14.13;79.45;100687.31;5071179;28;20575;-72
2022/06/04 01:29:12;;;;;;;0.00;0.00;;;;;;;14.15;79.49;100687.78;5071072;28;20653;-73
2022/06/04 01:31:54;;;;;;;0.00;0.00;;;;;;;13.65;79.00;100685.69;5071169;28;20307;-74
2022/06/04 01:34:29;;;;;;;0.00;0.00;;;;;;;13.75;79.97;100679.03;5071340;28;20260;-73
2022/06/04 01:37:10;;;;;;;0.00;0.00;;;;;;;13.52;79.66;100689.41;5071337;28;20166;-73
2022/06/04 01:42:31;;;;;;;0.00;0.00;;;;;;;13.36;80.77;100700.88;5073338;28;20173;-74
2022/06/04 01:44:59;;;;;;;0.00;0.00;;;;;;;13.36;81.27;100695.41;5071072;28;20192;-74
2022/06/04 01:47:28;;;;;;;0.00;0.00;;;;;;;13.34;80.79;100699.59;5070328;28;20178;-74
2022/06/04 01:49:56;;;;;;;0.00;0.00;;;;;;;13.28;81.54;100701.69;5069534;28;20540;-74
2022/06/04 01:52:42;;;;;;;0.00;0.00;;;;;;;13.46;81.43;100702.50;5071530;28;20179;-74
2022/06/04 01:55:28;;;;;;;0.00;0.00;;;;;;;13.66;80.75;100714.75;5071701;28;20162;-74
2022/06/04 01:58:01;;;;;;;0.00;0.00;;;;;;;13.69;80.42;100705.84;5070577;28;20167;-73
2022/06/04 02:00:32;;;;;;;0.00;0.00;;;;;;;13.69;80.15;100708.59;5070986;28;20190;-74
2022/06/04 02:03:12;;;;;;;0.00;0.00;;;;;;;13.68;80.26;100704.25;5070934;28;20209;-74
2022/06/04 02:06:04;;;;;;;0.00;0.00;;;;;;;13.55;80.17;100714.25;5070958;28;20174;-74
2022/06/04 02:08:43;;;;;;;0.00;0.00;;;;;;;13.48;81.01;100711.22;5070198;28;20216;-74
2022/06/04 02:11:15;;;;;;;0.00;0.00;;;;;;;13.60;80.93;100716.88;5070869;28;20163;-73
2022/06/04 02:13:43;;;;;;;0.00;0.00;;;;;;;13.67;80.53;100719.09;5070762;28;20166;-74
2022/06/04 02:16:20;;;;;;;0.00;0.00;;;;;;;13.63;80.43;100718.94;5070814;28;20553;-74
2022/06/04 02:18:47;;;;;;;0.00;0.00;;;;;;;13.49;80.31;100715.56;5070140;28;20212;-74
2022/06/04 02:21:16;;;;;;;0.00;0.00;;;;;;;13.36;80.93;100719.28;5070716;28;20175;-73
2022/06/04 02:23:43;;;;;;;0.00;0.00;;;;;;;13.09;82.35;100721.19;5070761;28;20265;-74
2022/06/04 02:26:09;;;;;;;0.00;0.00;;;;;;;12.85;83.97;100728.22;5070700;28;20167;-74
2022/06/04 02:28:36;;;;;;;0.00;0.00;;;;;;;12.63;84.81;100729.16;5070143;28;20602;-73
2022/06/04 02:31:12;;;;;;;0.40;0.40;;;;;;;12.37;87.11;100724.38;5071020;28;20179;-73
2022/06/04 02:33:49;;;;;;;0.00;0.00;;;;;;;12.22;88.33;100716.59;5070547;28;20162;-73
2022/06/04 02:36:35;;;;;;;0.00;0.00;;;;;;;11.99;90.32;100720.50;5069274;28;20518;-73
2022/06/04 02:39:15;;;;;;;0.00;0.00;;;;;;;11.84;92.09;100713.47;5070022;28;20194;-74
2022/06/04 02:41:50;;;;;;;0.00;0.00;;;;;;;11.69;93.78;100724.78;5070424;28;20184;-74
2022/06/04 02:44:28;;;;;;;0.00;0.00;;;;;;;11.65;94.81;100727.34;5070475;28;20549;-74
2022/06/04 02:47:15;;;;;;;0.60;0.60;;;;;;;11.62;95.66;100726.03;5070164;28;20292;-74
2022/06/04 02:49:50;;;;;;;0.00;0.00;;;;;;;11.60;95.99;100724.75;5063631;28;20265;-74
2022/06/04 02:52:18;;;;;;;0.00;0.00;;;;;;;11.54;96.46;100720.50;5065766;28;20209;-74
2022/06/04 02:54:53;;;;;;;0.00;0.00;;;;;;;11.49;96.85;100734.31;5070948;28;20188;-74
2022/06/04 02:57:18;;;;;;;0.00;0.00;;;;;;;11.37;97.66;100723.09;5071232;28;20526;-74
2022/06/04 02:59:46;;;;;;;0.00;0.00;;;;;;;11.32;98.32;100719.38;5074222;28;20198;-73
2022/06/04 03:02:15;;;;;;;0.00;0.00;;;;;;;11.32;98.69;100724.84;5074216;28;20174;-74
2022/06/04 03:04:48;;;;;;;2.00;1.50;;;;;;;11.26;99.52;100731.53;5074461;28;20261;-73
2022/06/04 03:07:14;;;;;;;0.00;0.00;;;;;;;11.22;99.33;100729.75;5072915;28;20170;-73
2022/06/04 03:09:39;;;;;;;0.00;0.00;;;;;;;11.26;99.51;100728.81;5074360;28;20179;-74
2022/06/04 03:12:07;;;;;;;0.00;0.00;;;;;;;11.26;100.00;100726.06;5074609;28;20314;-73
2022/06/04 03:14:32;;;;;;;0.47;0.47;;;;;;;11.20;100.00;100726.50;5074221;28;20186;-74
2022/06/04 03:16:58;;;;;;;0.00;0.00;;;;;;;11.16;100.00;100731.00;5072908;28;20171;-73
2022/06/04 03:19:23;;;;;;;0.13;0.13;;;;;;;11.15;100.00;100724.72;5074223;28;20198;-74
2022/06/04 03:21:49;;;;;;;0.20;0.20;;;;;;;11.12;100.00;100727.22;5074140;28;20198;-74
2022/06/04 03:24:15;;;;;;;0.20;0.20;;;;;;;11.09;100.00;100725.13;5073979;28;20181;-73
2022/06/04 03:26:42;;;;;;;0.00;0.00;;;;;;;11.08;100.00;100735.25;5073731;28;20215;-74
2022/06/04 03:29:08;;;;;;;0.73;0.40;;;;;;;11.05;100.00;100746.81;5073651;28;20175;-74
2022/06/04 03:31:34;;;;;;;0.00;0.00;;;;;;;11.01;100.00;100748.53;5073952;28;20545;-74
2022/06/04 03:33:59;;;;;;;0.90;0.87;;;;;;;10.99;100.00;100737.06;5073966;28;20175;-73
2022/06/04 03:36:25;;;;;;;1.37;1.27;;;;;;;10.94;100.00;100734.47;5073980;28;20175;-74
2022/06/04 03:38:54;;;;;;;0.00;0.00;;;;;;;10.94;100.00;100735.28;5073681;28;20201;-73
2022/06/04 03:41:19;;;;;;;0.00;0.00;;;;;;;10.96;100.00;100732.22;5073944;28;20643;-74
2022/06/04 03:43:46;;;;;;;0.00;0.00;;;;;;;10.97;100.00;100725.66;5073765;28;20178;-74
2022/06/04 03:46:12;;;;;;;0.00;0.00;;;;;;;10.98;100.00;100730.00;5073860;28;20163;-73
2022/06/04 03:48:38;;;;;;;0.10;0.10;;;;;;;11.02;100.00;100729.09;5072509;28;20174;-74
2022/06/04 03:51:03;;;;;;;0.10;0.10;;;;;;;11.06;100.00;100723.81;5073248;28;20170;-74
2022/06/04 03:53:28;;;;;;;0.00;0.00;;;;;;;11.13;100.00;100734.31;5073685;28;20171;-74
2022/06/04 03:55:57;;;;;;;0.00;0.00;;;;;;;11.20;100.00;100732.78;5073569;28;20166;-73
2022/06/04 03:58:29;;;;;;;0.00;0.00;;;;;;;11.38;100.00;100736.47;5073093;28;20191;-75
2022/06/04 04:00:55;;;;;;;0.00;0.00;;;;;;;11.55;99.82;100738.53;5073628;28;20161;-74
2022/06/04 04:03:20;;;;;;;0.00;0.00;;;;;;;11.68;98.09;100742.34;5073331;28;20175;-74
2022/06/04 04:05:54;;;;;;;0.00;0.00;;;;;;;11.81;96.60;100744.22;5073640;28;20167;-73
2022/06/04 04:08:24;;;;;;;0.00;0.00;;;;;;;11.88;94.60;100755.56;5071180;28;20258;-75
2022/06/04 04:10:49;;;;;;;0.77;0.73;;;;;;;11.94;93.62;100756.22;5072647;28;20570;-74
2022/06/04 04:13:17;;;;;;;0.00;0.00;;;;;;;11.90;90.67;100761.53;5073118;28;20257;-74
2022/06/04 04:15:43;;;;;;;0.00;0.00;;;;;;;11.95;89.89;100766.06;5072868;28;20863;-73
2022/06/04 04:18:09;;;;;;;0.00;0.00;;;;;;;11.97;90.68;100772.84;5072498;28;20167;-74
2022/06/04 04:20:37;;;;;;;0.00;0.00;;;;;;;11.99;90.23;100767.03;5073075;28;20221;-74
2022/06/04 04:23:05;;;;;;;0.00;0.00;;;;;;;12.08;89.97;100767.91;5072503;28;20174;-74
2022/06/04 04:25:31;;;;;;;0.00;0.00;;;;;;;12.17;89.95;100771.53;5072585;28;20173;-74
2022/06/04 04:27:57;;;;;;;0.00;0.00;;;;;;;12.23;89.36;100762.03;5071979;28;20265;-74
2022/06/04 04:30:26;;;;;;;0.00;0.00;;;;;;;12.32;88.11;100768.38;5072486;28;20274;-74
2022/06/04 04:32:52;;;;;;;0.00;0.00;;;;;;;12.40;85.70;100759.38;5072377;28;20170;-73
2022/06/04 04:35:22;;;;;;;0.00;0.00;;;;;;;12.56;83.96;100750.72;5072702;28;20224;-74
2022/06/04 04:37:47;;;;;;;0.00;0.00;;;;;;;12.61;81.68;100748.66;5071697;28;20184;-74
2022/06/04 04:40:15;;;;;;;0.00;0.00;;;;;;;12.69;79.02;100761.56;5072082;28;20445;-73
2022/06/04 04:42:42;;;;;;;0.00;0.00;;;;;;;12.89;79.87;100762.13;5072463;28;20178;-74
2022/06/04 04:45:08;;;;;;;0.00;0.00;;;;;;;13.00;78.61;100761.50;5072086;28;20175;-74
2022/06/04 04:47:40;;;;;;;0.00;0.00;;;;;;;13.13;77.40;100764.44;5069644;28;20518;-74
2022/06/04 04:50:11;;;;;;;0.00;0.00;;;;;;;13.09;73.95;100765.06;5072118;28;20243;-74
2022/06/04 04:52:36;;;;;;;0.00;0.00;;;;;;;13.06;72.40;100771.19;5072009;28;20252;-73
2022/06/04 04:55:02;;;;;;;0.00;0.00;;;;;;;13.09;72.79;100778.78;5071968;28;20239;-75
2022/06/04 04:57:28;;;;;;;0.00;0.00;;;;;;;13.19;71.74;100768.69;5071681;28;20219;-74
2022/06/04 04:59:53;;;;;;;0.00;0.00;;;;;;;13.19;70.81;100785.13;5071763;28;20202;-74
2022/06/04 05:02:18;;;;;;;0.00;0.00;;;;;;;13.20;70.71;100782.06;5071642;28;20313;-74
2022/06/04 05:04:43;;;;;;;0.00;0.00;;;;;;;13.26;70.14;100774.47;5071680;28;20334;-74
2022/06/04 05:07:11;;;;;;;0.00;0.00;;;;;;;13.23;69.20;100780.63;5071616;28;20287;-75
2022/06/04 05:09:39;;;;;;;0.00;0.00;;;;;;;13.32;69.58;100790.50;5071514;28;20166;-74
2022/06/04 05:12:08;;;;;;;0.00;0.00;;;;;;;13.34;69.38;100779.19;5071370;28;20255;-74
2022/06/04 05:14:34;;;;;;;0.00;0.00;;;;;;;13.42;68.54;100781.13;5071474;28;20536;-74
2022/06/04 05:16:59;;;;;;;0.00;0.00;;;;;;;13.39;68.75;100773.53;5071513;28;20178;-73
2022/06/04 05:19:25;;;;;;;0.00;0.00;;;;;;;13.37;68.69;100775.78;5071009;28;20202;-75
2022/06/04 05:21:52;;;;;;;0.00;0.00;;;;;;;13.48;69.23;100776.28;5071142;28;20720;-73
2022/06/04 05:24:21;;;;;;;0.03;0.03;;;;;;;13.44;69.41;100778.84;5071479;28;20189;-74
2022/06/04 05:26:47;;;;;;;0.07;0.07;;;;;;;13.39;69.19;100777.09;5071332;28;20163;-74
2022/06/04 05:29:12;;;;;;;0.00;0.00;;;;;;;13.44;69.73;100770.63;5070811;28;20622;-75
2022/06/04 05:31:39;;;;;;;0.00;0.00;;;;;;;13.51;69.79;100762.72;5071223;28;20170;-71
2022/06/04 05:34:05;;;;;;;0.00;0.00;;;;;;;13.58;69.24;100759.47;5071340;28;20181;-72
2022/06/04 05:36:31;;;;;;;0.00;0.00;;;;;;;13.64;69.96;100767.25;5071361;28;20253;-72
2022/06/04 05:38:56;;;;;;;0.00;0.00;;;;;;;13.77;69.98;100779.19;5070644;28;20281;-72
2022/06/04 05:41:21;;;;;;;0.00;0.00;;;;;;;13.66;68.51;100780.66;5071430;28;20208;-71
2022/06/04 05:43:47;;;;;;;0.10;0.10;;;;;;;13.72;68.82;100784.03;5066954;28;20607;-72
2022/06/04 05:46:15;;;;;;;0.73;0.20;;;;;;;13.73;69.14;100789.19;5070850;28;20202;-71
2022/06/04 05:48:43;;;;;;;0.00;0.00;;;;;;;13.80;67.96;100794.19;5069913;28;20174;-70
2022/06/04 05:51:13;;;;;;;0.07;0.07;;;;;;;13.81;68.03;100804.88;5071237;28;20170;-72
2022/06/04 05:53:39;;;;;;;0.00;0.00;;;;;;;13.88;69.42;100821.66;5071062;28;20182;-72
2022/06/04 05:56:19;;;;;;;0.70;0.70;;;;;;;13.81;69.45;100824.09;5070968;28;20167;-72
2022/06/04 05:58:46;;;;;;;0.60;0.60;;;;;;;13.73;69.00;100824.88;5070941;28;20224;-73
2022/06/04 06:01:12;;;;;;;0.00;0.00;;;;;;;13.87;69.19;100816.47;5071622;28;20171;-73
2022/06/04 06:03:38;;;;;;;0.00;0.00;;;;;;;13.91;68.05;100822.97;5071366;28;20673;-73
2022/06/04 06:06:03;;;;;;;0.00;0.00;;;;;;;13.91;68.21;100828.47;5071319;28;20202;-72
2022/06/04 06:08:29;;;;;;;0.00;0.00;;;;;;;13.81;68.38;100829.59;5070604;28;20175;-71
2022/06/04 06:10:54;;;;;;;0.00;0.00;;;;;;;13.90;68.51;100832.34;5071303;28;20223;-71
2022/06/04 06:13:20;;;;;;;0.00;0.00;;;;;;;14.00;68.30;100834.72;5070999;28;20170;-72
2022/06/04 06:15:45;;;;;;;0.00;0.00;;;;;;;14.09;69.48;100840.22;5071301;28;20535;-72
2022/06/04 06:18:10;;;;;;;0.00;0.00;;;;;;;14.23;68.06;100846.34;5070344;28;20171;-72
2022/06/04 06:20:41;;;;;;;0.00;0.00;;;;;;;14.28;67.55;100840.69;5070991;28;20178;-71
2022/06/04 06:23:06;;;;;;;0.17;0.00;;;;;;;14.22;65.73;100842.00;5071050;28;20244;-71
2022/06/04 06:25:32;;;;;;;0.00;0.00;;;;;;;14.29;65.51;100845.03;5071329;28;20203;-71
2022/06/04 06:27:57;;;;;;;0.50;0.50;;;;;;;14.46;64.42;100857.97;5070469;28;20175;-73
2022/06/04 06:30:22;;;;;;;0.00;0.00;;;;;;;14.52;64.29;100848.41;5069521;28;20183;-72
2022/06/04 06:32:48;;;;;;;0.00;0.00;;;;;;;14.63;64.29;100859.88;5070537;28;20210;-71
2022/06/04 06:35:13;;;;;;;0.03;0.03;;;;;;;14.47;62.96;100863.16;5075046;28;20253;-72
2022/06/04 06:37:38;;;;;;;0.00;0.00;;;;;;;14.55;63.28;100867.00;5074760;28;20190;-72
2022/06/04 06:40:05;;;;;;;0.00;0.00;;;;;;;14.56;64.06;100865.88;5073670;28;20197;-71
2022/06/04 06:42:30;;;;;;;0.00;0.00;;;;;;;14.63;63.99;100865.38;5075027;28;20183;-72
2022/06/04 06:44:55;;;;;;;0.10;0.10;;;;;;;14.96;64.09;100866.38;5074648;28;20186;-71
2022/06/04 06:47:22;;;;;;;0.03;0.03;;;;;;;14.89;62.92;100872.38;5074650;28;20177;-72
2022/06/04 06:49:48;;;;;;;0.27;0.27;;;;;;;15.05;63.62;100880.91;5073162;28;20178;-72
2022/06/04 06:52:16;;;;;;;0.10;0.10;;;;;;;15.05;62.65;100877.38;5073229;28;20183;-71
2022/06/04 06:54:41;;;;;;;0.00;0.00;;;;;;;14.98;62.51;100888.06;5074985;28;20174;-73
2022/06/04 06:57:09;;;;;;;0.83;0.63;;;;;;;15.18;63.17;100882.63;5074428;28;20547;-72
2022/06/04 06:59:35;;;;;;;0.00;0.00;;;;;;;15.36;61.88;100888.84;5074187;28;20198;-71
2022/06/04 07:02:01;;;;;;;0.00;0.00;;;;;;;15.34;61.74;100890.34;5074519;28;20185;-71
2022/06/04 07:04:26;;;;;;;0.03;0.03;;;;;;;15.52;62.32;100891.03;5074592;28;20183;-71
2022/06/04 07:06:56;;;;;;;0.30;0.30;;;;;;;15.82;62.64;100883.56;5073737;28;20683;-71
2022/06/04 07:09:28;;;;;;;0.00;0.00;;;;;;;15.74;59.48;100886.03;5073850;28;20221;-71
2022/06/04 07:11:54;;;;;;;0.07;0.07;;;;;;;15.68;58.61;100886.56;5073698;28;20213;-71
2022/06/04 07:14:22;;;;;;;0.20;0.20;;;;;;;15.75;58.63;100884.09;5069457;28;20225;-72
2022/06/04 07:16:48;;;;;;;0.00;0.00;;;;;;;15.96;60.02;100895.94;5073806;28;20178;-71
2022/06/04 07:19:15;;;;;;;0.63;0.63;;;;;;;16.04;58.05;100900.53;5073858;28;20515;-72
2022/06/04 07:21:41;;;;;;;0.20;0.20;;;;;;;16.01;57.99;100892.97;5073896;28;20183;-71
2022/06/04 07:24:07;;;;;;;0.10;0.10;;;;;;;16.05;58.11;100884.81;5074110;28;20209;-72
2022/06/04 07:26:33;;;;;;;0.00;0.00;;;;;;;15.91;58.00;100887.03;5073824;28;20202;-71
2022/06/04 07:28:59;;;;;;;0.00;0.00;;;;;;;16.18;59.02;100892.00;5073624;28;20174;-71
2022/06/04 07:31:25;;;;;;;0.00;0.00;;;;;;;16.26;58.75;100888.38;5073730;28;20185;-71
2022/06/04 07:33:55;;;;;;;0.00;0.00;;;;;;;16.60;59.34;100889.97;5073732;28;20178;-71
2022/06/04 07:36:24;;;;;;;0.00;0.00;;;;;;;16.56;57.36;100889.03;5073664;28;20246;-71
2022/06/04 07:38:51;;;;;;;0.00;0.00;;;;;;;16.57;56.57;100879.63;5073112;28;20669;-71
2022/06/04 07:41:25;;;;;;;0.27;0.27;;;;;;;16.61;57.37;100875.03;5073833;28;20171;-71
2022/06/04 07:43:51;;;;;;;0.00;0.00;;;;;;;16.91;58.09;100872.09;5073467;28;20181;-71
2022/06/04 07:46:17;;;;;;;0.10;0.10;;;;;;;16.78;56.33;100863.03;5073723;28;20201;-71
2022/06/04 07:48:43;;;;;;;0.17;0.13;;;;;;;16.98;57.31;100861.31;5072623;28;20629;-71
2022/06/04 07:51:09;;;;;;;0.53;0.20;;;;;;;16.91;56.75;100855.53;5073433;28;20178;-71
2022/06/04 07:53:35;;;;;;;0.50;0.50;;;;;;;17.15;56.77;100857.53;5073880;28;20174;-72
2022/06/04 07:56:12;;;;;;;0.33;0.33;;;;;;;17.26;56.87;100858.69;5070450;28;20185;-73
2022/06/04 07:58:38;;;;;;;0.00;0.00;;;;;;;17.32;57.01;100862.81;5072647;28;20194;-73
2022/06/04 08:01:05;;;;;;;1.30;0.67;;;;;;;17.33;55.98;100869.13;5073245;28;20799;-72
2022/06/04 08:03:36;;;;;;;0.00;0.00;;;;;;;17.28;55.80;100863.84;5073313;28;20331;-71
2022/06/04 08:06:02;;;;;;;0.10;0.10;;;;;;;17.40;55.48;100872.94;5073607;28;20170;-71
2022/06/04 08:08:29;;;;;;;0.10;0.10;;;;;;;17.47;55.46;100875.09;5072687;28;20221;-71
2022/06/04 08:10:54;;;;;;;0.23;0.10;;;;;;;17.42;54.97;100878.09;5073175;28;20233;-71
2022/06/04 08:13:26;;;;;;;0.10;0.10;;;;;;;17.67;55.36;100889.94;5072995;28;20231;-71
2022/06/04 08:16:00;;;;;;;0.00;0.00;;;;;;;17.61;54.07;100897.66;5073144;28;20159;-71
2022/06/04 08:18:26;;;;;;;18.23;0.93;;;;;;;17.77;53.90;100889.47;5071025;28;20175;-72
2022/06/04 08:20:53;;;;;;;0.47;0.40;;;;;;;17.71;53.00;100879.81;5072847;28;20235;-72
2022/06/04 08:23:19;;;;;;;0.20;0.20;;;;;;;17.93;53.77;100884.81;5072961;28;20177;-71
2022/06/04 08:25:48;;;;;;;0.87;0.87;;;;;;;17.99;52.08;100893.69;5072643;28;20198;-71
2022/06/04 08:28:17;;;;;;;0.00;0.00;;;;;;;18.07;52.82;100898.25;5072422;28;20535;-71
2022/06/04 08:30:44;;;;;;;0.47;0.47;;;;;;;18.18;52.79;100898.56;5072412;28;20178;-72
2022/06/04 08:33:11;;;;;;;0.33;0.10;;;;;;;18.29;53.29;100899.69;5073337;28;20182;-72
2022/06/04 08:35:36;;;;;;;0.20;0.20;;;;;;;18.24;52.28;100891.66;5072665;28;20182;-71
2022/06/04 08:38:02;;;;;;;0.10;0.10;;;;;;;18.30;52.87;100901.28;5072015;28;20178;-73
2022/06/04 08:40:37;;;;;;;0.00;0.00;;;;;;;18.55;53.27;100891.72;5072330;28;20213;-72
2022/06/04 08:43:05;;;;;;;0.00;0.00;;;;;;;18.68;52.63;100889.72;5072390;28;20202;-72
2022/06/04 08:45:30;;;;;;;0.10;0.10;;;;;;;18.63;51.97;100887.16;5072528;28;20182;-71
2022/06/04 08:47:55;;;;;;;5.20;4.90;;;;;;;18.66;51.57;100890.09;5071229;28;20536;-73
2022/06/04 08:50:31;;;;;;;0.00;0.00;;;;;;;18.75;51.97;100880.78;5072633;28;20223;-73
2022/06/04 08:53:02;;;;;;;0.20;0.20;;;;;;;18.81;51.66;100894.03;5072184;28;20185;-71
2022/06/04 08:58:51;;;;;;;0.00;0.00;;;;;;;18.83;51.56;100890.91;5071315;28;20797;-71
2022/06/04 09:01:25;;;;;;;0.20;0.20;;;;;;;18.60;51.68;100894.22;5071835;28;20205;-71
2022/06/04 09:04:06;;;;;;;0.00;0.00;;;;;;;18.79;51.84;100893.56;5071754;28;20244;-71
2022/06/04 09:06:42;;;;;;;0.20;0.20;;;;;;;19.03;51.76;100901.69;5059753;28;20201;-71
2022/06/04 09:09:17;;;;;;;0.00;0.00;;;;;;;19.19;52.89;100898.13;5052524;28;20277;-71
2022/06/04 09:11:57;;;;;;;0.30;0.30;;;;;;;19.03;51.95;100901.69;5066193;28;20184;-71
2022/06/04 09:14:27;;;;;;;0.67;0.43;;;;;;;19.08;51.75;100902.59;5069540;28;20552;-71
2022/06/04 09:17:02;;;;;;;0.00;0.00;;;;;;;19.25;52.25;100905.00;5060772;28;20547;-71
2022/06/04 09:19:35;;;;;;;0.00;0.00;;;;;;;19.57;52.18;100914.91;5067533;28;20209;-71
2022/06/04 09:22:02;;;;;;;0.00;0.00;;;;;;;19.51;51.18;100908.00;5065012;28;20182;-71
2022/06/04 09:24:28;;;;;;;0.00;0.00;;;;;;;19.36;51.81;100908.03;5070729;28;20181;-71
2022/06/04 09:27:14;;;;;;;0.10;0.10;;;;;;;19.34;52.31;100911.16;5067517;28;20175;-71
2022/06/04 09:30:04;;;;;;;0.00;0.00;;;;;;;19.21;51.30;100902.13;5067282;28;20193;-71
2022/06/04 09:32:45;;;;;;;0.00;0.00;;;;;;;19.15;51.75;100916.63;5068756;28;20187;-71
2022/06/04 09:35:14;;;;;;;0.43;0.43;;;;;;;19.29;51.83;100920.56;5070623;28;20178;-71
2022/06/04 09:37:48;;;;;;;0.00;0.00;;;;;;;19.26;51.02;100923.25;5070098;28;20186;-71
2022/06/04 09:40:25;;;;;;;0.10;0.10;;;;;;;19.45;51.44;100923.31;5067480;28;20575;-71
2022/06/04 09:42:51;;;;;;;0.30;0.30;;;;;;;19.50;51.54;100916.69;5071515;28;20178;-70
2022/06/04 09:45:28;;;;;;;0.00;0.00;;;;;;;19.49;51.38;100923.38;5071141;28;20198;-71
2022/06/04 09:47:55;;;;;;;0.20;0.07;;;;;;;19.64;51.80;100930.91;5070208;28;20170;-71
2022/06/04 09:50:31;;;;;;;0.00;0.00;;;;;;;19.74;50.74;100930.34;5071304;28;20189;-72
2022/06/04 09:53:18;;;;;;;0.07;0.07;;;;;;;19.79;50.12;100918.97;5071480;28;20170;-71
2022/06/04 09:55:48;;;;;;;2.27;0.63;;;;;;;19.60;49.80;100925.28;5071129;28;20220;-71
2022/06/04 09:58:26;;;;;;;0.67;0.53;;;;;;;20.06;50.76;100922.72;5068134;28;20185;-71
2022/06/04 10:01:03;;;;;;;0.00;0.00;;;;;;;19.94;50.54;100922.84;5071341;28;20205;-71
2022/06/04 10:03:31;;;;;;;0.00;0.00;;;;;;;20.11;50.51;100929.97;5071263;28;20163;-71
2022/06/04 10:05:59;;;;;;;0.00;0.00;;;;;;;20.23;49.76;100923.47;5066670;28;20592;-71
2022/06/04 10:08:27;;;;;;;0.00;0.00;;;;;;;20.24;50.80;100903.66;5067511;28;20186;-71
2022/06/04 10:11:00;;;;;;;0.30;0.30;;;;;;;20.09;50.38;100908.13;5068893;28;20224;-72
2022/06/04 10:13:45;;;;;;;0.00;0.00;;;;;;;20.23;51.75;100904.03;5070791;28;20360;-71
2022/06/04 10:16:15;;;;;;;0.10;0.10;;;;;;;20.31;51.26;100911.34;5071449;28;20261;-71
2022/06/04 10:19:13;;;;;;;0.70;0.70;;;;;;;20.39;50.46;100913.06;5069957;28;20202;-71
2022/06/04 10:21:41;;;;;;;0.30;0.30;;;;;;;20.51;50.11;100907.41;5071082;28;20163;-70
2022/06/04 10:24:30;;;;;;;0.00;0.00;;;;;;;20.91;50.51;100900.59;5069690;28;20175;-71
2022/06/04 10:27:15;;;;;;;0.00;0.00;;;;;;;20.76;50.12;100911.47;5071055;28;20202;-71
2022/06/04 10:30:04;;;;;;;0.00;0.00;;;;;;;20.99;50.01;100903.16;5067578;28;20532;-71
2022/06/04 10:32:44;;;;;;;0.10;0.10;;;;;;;21.15;50.20;100908.56;5062759;28;20191;-71
2022/06/04 10:35:34;;;;;;;0.00;0.00;;;;;;;20.97;50.11;100910.22;5070566;28;20157;-71
2022/06/04 10:38:20;;;;;;;0.40;0.40;;;;;;;20.87;49.15;100908.06;5069845;28;20580;-71
2022/06/04 10:41:04;;;;;;;0.00;0.00;;;;;;;20.63;49.38;100904.47;5070418;28;20170;-71
2022/06/04 10:44:17;;;;;;;0.00;0.00;;;;;;;20.72;49.74;100907.81;5070699;28;20627;-71
2022/06/04 10:47:02;;;;;;;0.10;0.10;;;;;;;20.72;51.01;100907.81;5061055;28;20231;-71
2022/06/04 10:49:33;;;;;;;0.00;0.00;;;;;;;20.90;50.86;100902.56;5070202;28;20182;-71
2022/06/04 10:52:20;;;;;;;0.00;0.00;;;;;;;21.02;50.14;100904.38;5070391;28;20194;-71
2022/06/04 10:54:52;;;;;;;0.00;0.00;;;;;;;21.05;50.56;100901.66;5070359;28;20647;-72
2022/06/04 10:57:33;;;;;;;0.00;0.00;;;;;;;21.34;51.70;100902.94;5069886;28;20214;-71
2022/06/04 11:00:18;;;;;;;0.00;0.00;;;;;;;21.58;50.54;100900.94;5070256;28;20590;-71
2022/06/04 11:03:11;;;;;;;0.00;0.00;;;;;;;21.76;50.12;100898.41;5070231;28;20257;-71
2022/06/04 11:05:40;;;;;;;0.00;0.00;;;;;;;21.71;49.60;100895.94;5070261;28;20174;-71
2022/06/04 11:08:18;;;;;;;0.20;0.20;;;;;;;21.94;49.59;100891.88;5069622;28;20184;-72
2022/06/04 11:10:49;;;;;;;0.00;0.00;;;;;;;21.83;49.55;100895.69;5066504;28;20170;-71
2022/06/04 11:13:20;;;;;;;0.10;0.10;;;;;;;21.67;49.61;100891.13;5056727;28;20171;-70
2022/06/04 11:16:00;;;;;;;0.30;0.30;;;;;;;21.55;49.84;100896.09;5070303;28;20173;-70
2022/06/04 11:18:37;;;;;;;0.10;0.10;;;;;;;21.68;48.61;100901.06;5069597;28;20213;-70
2022/06/04 11:21:10;;;;;;;0.63;0.27;;;;;;;21.75;48.60;100899.56;5073711;28;20166;-71
2022/06/04 11:23:44;;;;;;;0.10;0.10;;;;;;;21.73;48.98;100904.72;5065776;28;20210;-72
2022/06/04 11:26:26;;;;;;;0.10;0.10;;;;;;;21.75;47.96;100892.03;5071235;28;20175;-71
2022/06/04 11:28:51;;;;;;;0.47;0.43;;;;;;;21.77;48.84;100900.00;5071910;28;20232;-71
2022/06/04 11:31:32;;;;;;;0.00;0.00;;;;;;;21.64;48.35;100896.63;5053637;28;20559;-71
2022/06/04 11:34:10;;;;;;;0.40;0.40;;;;;;;21.72;48.66;100900.34;5065787;28;20179;-71
2022/06/04 11:36:44;;;;;;;0.00;0.00;;;;;;;21.92;48.41;100890.66;5067947;28;20665;-72
2022/06/04 11:39:15;;;;;;;0.37;0.30;;;;;;;21.91;48.23;100889.84;5073713;28;20549;-72
2022/06/04 11:41:59;;;;;;;1.20;0.50;;;;;;;21.93;48.29;100895.03;5073156;28;20617;-72
2022/06/04 11:44:42;;;;;;;0.00;0.00;;;;;;;21.94;48.35;100888.31;5072310;28;20197;-71
2022/06/04 11:47:26;;;;;;;0.10;0.10;;;;;;;21.88;48.61;100889.81;5071942;28;20185;-71
2022/06/04 11:50:02;;;;;;;0.30;0.30;;;;;;;22.01;49.03;100891.19;5070253;28;20249;-72
2022/06/04 11:52:43;;;;;;;0.30;0.30;;;;;;;21.76;48.65;100885.28;5073000;28;20185;-71
2022/06/04 11:55:26;;;;;;;0.60;0.60;;;;;;;21.87;48.52;100891.00;5073591;28;20162;-73